createdAt,value
2023-01-01T00:01:48.558Z,208.70
2023-01-01T00:04:16.201Z,220.60
2023-01-01T00:06:42.836Z,240.88
2023-01-01T00:09:28.524Z,226.38
2023-01-01T00:11:54.842Z,209.20
2023-01-01T00:14:21.279Z,174.70
2023-01-01T00:16:47.942Z,168.60
2023-01-01T00:19:14.350Z,192.10
2023-01-01T00:21:40.780Z,174.68
2023-01-01T00:24:07.415Z,160.38
2023-01-01T00:26:35.599Z,161.20
2023-01-01T00:29:02.971Z,162.95
2023-01-01T00:31:29.930Z,132.57
2023-01-01T00:33:56.937Z,121.95
2023-01-01T00:36:25.208Z,115.90
2023-01-01T00:38:51.767Z,105.72
2023-01-01T00:41:18.873Z,95.85
2023-01-01T00:43:45.368Z,99.50
2023-01-01T00:46:12.827Z,88.45
2023-01-01T00:48:39.474Z,81.50
2023-01-01T00:51:06.494Z,74.45
2023-01-01T00:53:33.330Z,70.75
2023-01-01T00:55:59.792Z,61.13
2023-01-01T00:58:26.218Z,57.03
2023-01-01T01:00:56.607Z,58.90
2023-01-01T01:03:29.090Z,56.13
2023-01-01T01:06:08.999Z,55.60
2023-01-01T01:08:37.163Z,43.10
2023-01-01T01:11:17.776Z,68.78
2023-01-01T01:13:46.156Z,37.92
2023-01-01T01:16:18.805Z,41.63
2023-01-01T01:18:45.983Z,44.95
2023-01-01T01:21:17.177Z,42.70
2023-01-01T01:23:43.541Z,37.55
2023-01-01T01:26:20.250Z,34.53
2023-01-01T01:28:49.676Z,33.95
2023-01-01T01:31:18.121Z,34.47
2023-01-01T01:33:45.476Z,30.52
2023-01-01T01:36:12.735Z,34.75
2023-01-01T01:38:39.344Z,32.70
2023-01-01T01:41:06.329Z,38.47
2023-01-01T01:43:32.583Z,39.20
2023-01-01T01:46:03.549Z,27.73
2023-01-01T01:48:34.403Z,28.77
2023-01-01T01:51:00.887Z,29.80
2023-01-01T01:53:30.633Z,38.97
2023-01-01T01:56:01.446Z,37.20
2023-01-01T01:58:30.386Z,39.60
2023-01-01T02:00:57.386Z,31.50
2023-01-01T02:03:29.862Z,37.55
2023-01-01T02:05:56.596Z,30.08
2023-01-01T02:08:23.476Z,34.60
2023-01-01T02:10:49.843Z,34.78
2023-01-01T02:13:16.829Z,40.33
2023-01-01T02:15:57.348Z,42.80
2023-01-01T02:18:36.446Z,40.53
2023-01-01T02:21:12.932Z,44.53
2023-01-01T02:24:00.801Z,43.67
2023-01-01T02:26:49.915Z,39.67
2023-01-01T02:29:32.505Z,46.45
2023-01-01T02:32:09.192Z,44.78
2023-01-01T02:34:40.654Z,40.40
2023-01-01T02:37:10.198Z,39.00
2023-01-01T02:39:42.008Z,36.45
2023-01-01T02:42:09.880Z,37.42
2023-01-01T02:44:41.537Z,35.40
2023-01-01T02:47:10.883Z,38.15
2023-01-01T02:49:44.991Z,34.13
2023-01-01T02:52:34.046Z,31.42
2023-01-01T02:55:07.361Z,28.38
2023-01-01T02:57:41.320Z,31.83
2023-01-01T03:00:40.425Z,32.20
2023-01-01T03:03:12.709Z,32.17
2023-01-01T03:06:11.269Z,36.95
2023-01-01T03:09:08.499Z,30.90
2023-01-01T03:11:53.762Z,31.00
2023-01-01T03:14:47.745Z,28.73
2023-01-01T03:17:31.474Z,26.55
2023-01-01T03:20:01.443Z,26.48
2023-01-01T03:25:19.515Z,26.10
2023-01-01T03:27:53.020Z,24.65
2023-01-01T03:30:21.238Z,23.80
2023-01-01T03:33:07.775Z,23.02
2023-01-01T03:35:42.311Z,23.15
2023-01-01T03:38:20.149Z,22.75
2023-01-01T03:40:49.774Z,21.52
2023-01-01T03:43:39.018Z,22.02
2023-01-01T03:46:08.525Z,23.40
2023-01-01T03:49:02.111Z,24.15
2023-01-01T03:51:50.585Z,22.98
2023-01-01T03:54:29.369Z,22.00
2023-01-01T03:57:28.975Z,25.35
2023-01-01T04:00:04.313Z,24.20
2023-01-01T04:02:45.189Z,22.90
2023-01-01T04:05:12.577Z,19.95
2023-01-01T04:07:39.336Z,23.05
2023-01-01T04:10:17.263Z,26.50
2023-01-01T04:12:52.069Z,21.27
2023-01-01T04:15:20.705Z,21.35
2023-01-01T04:17:47.473Z,21.48
2023-01-01T04:20:14.166Z,22.33
2023-01-01T04:22:40.520Z,21.83
2023-01-01T04:25:07.796Z,21.33
2023-01-01T04:27:34.825Z,21.35
2023-01-01T04:30:01.399Z,19.17
2023-01-01T04:32:29.702Z,21.10
2023-01-01T04:34:56.059Z,19.13
2023-01-01T04:37:22.606Z,18.00
2023-01-01T04:39:48.900Z,15.82
2023-01-01T04:42:15.319Z,20.00
2023-01-01T04:44:41.632Z,14.95
2023-01-01T04:47:08.701Z,17.15
2023-01-01T04:49:35.037Z,16.27
2023-01-01T04:52:01.378Z,14.95
2023-01-01T04:54:27.679Z,15.18
2023-01-01T04:56:54.321Z,14.70
2023-01-01T04:59:20.778Z,17.13
2023-01-01T05:01:47.288Z,15.15
2023-01-01T05:04:15.607Z,14.20
2023-01-01T05:06:42.423Z,14.75
2023-01-01T05:09:10.286Z,15.07
2023-01-01T05:11:36.872Z,14.50
2023-01-01T05:14:03.899Z,13.18
2023-01-01T05:16:33.358Z,16.13
2023-01-01T05:19:00.050Z,14.07
2023-01-01T05:21:29.256Z,13.88
2023-01-01T05:23:57.266Z,11.80
2023-01-01T05:26:25.740Z,12.15
2023-01-01T05:28:52.078Z,12.43
2023-01-01T05:31:20.374Z,13.10
2023-01-01T05:33:47.544Z,13.50
2023-01-01T05:36:20.391Z,11.73
2023-01-01T05:38:47.071Z,12.07
2023-01-01T05:41:15.568Z,11.48
2023-01-01T05:43:42.201Z,10.73
2023-01-01T05:46:12.153Z,10.93
2023-01-01T05:48:38.953Z,10.70
2023-01-01T05:51:06.272Z,10.90
2023-01-01T05:53:33.123Z,11.25
2023-01-01T05:55:59.655Z,10.55
2023-01-01T05:58:27.843Z,10.05
2023-01-01T06:00:54.340Z,9.75
2023-01-01T06:03:21.147Z,10.55
2023-01-01T06:05:47.459Z,10.77
2023-01-01T06:08:14.389Z,8.48
2023-01-01T06:10:40.973Z,10.35
2023-01-01T06:13:13.164Z,11.68
2023-01-01T06:15:39.970Z,9.23
2023-01-01T06:18:06.327Z,9.25
2023-01-01T06:20:32.621Z,9.93
2023-01-01T06:22:59.000Z,7.35
2023-01-01T06:25:25.324Z,8.95
2023-01-01T06:27:51.654Z,10.20
2023-01-01T06:30:20.641Z,10.20
2023-01-01T06:32:46.939Z,7.57
2023-01-01T06:35:13.295Z,9.40
2023-01-01T06:37:39.578Z,6.63
2023-01-01T06:40:06.730Z,7.70
2023-01-01T06:42:34.177Z,6.93
2023-01-01T06:45:00.790Z,7.30
2023-01-01T06:47:27.161Z,5.72
2023-01-01T06:49:53.498Z,8.32
2023-01-01T06:52:19.825Z,5.65
2023-01-01T06:54:47.970Z,6.55
2023-01-01T06:57:14.346Z,6.47
2023-01-01T06:59:40.647Z,6.78
2023-01-01T07:02:11.159Z,6.88
2023-01-01T07:04:38.271Z,7.50
2023-01-01T07:07:05.584Z,7.07
2023-01-01T07:09:31.976Z,7.50
2023-01-01T07:11:58.609Z,7.00
2023-01-01T07:14:24.925Z,6.50
2023-01-01T07:16:51.322Z,9.60
2023-01-01T07:19:18.057Z,9.15
2023-01-01T07:21:51.526Z,7.03
2023-01-01T07:24:17.976Z,10.45
2023-01-01T07:26:47.344Z,7.38
2023-01-01T07:29:13.710Z,8.63
2023-01-01T07:32:16.051Z,8.07
2023-01-01T07:34:47.392Z,7.63
2023-01-01T07:37:23.082Z,8.00
2023-01-01T07:39:49.433Z,5.05
2023-01-01T07:42:15.728Z,9.63
2023-01-01T07:44:42.004Z,9.18
2023-01-01T07:47:21.663Z,8.55
2023-01-01T07:49:48.104Z,6.53
2023-01-01T07:52:15.326Z,7.13
2023-01-01T07:54:44.038Z,7.32
2023-01-01T07:57:11.196Z,7.13
2023-01-01T07:59:37.546Z,6.00
2023-01-01T08:02:04.306Z,7.82
2023-01-01T08:04:31.782Z,8.05
2023-01-01T08:06:58.116Z,7.68
2023-01-01T08:09:27.197Z,8.13
2023-01-01T08:11:55.996Z,7.85
2023-01-01T08:14:22.304Z,5.35
2023-01-01T08:16:48.635Z,6.47
2023-01-01T08:19:14.899Z,6.90
2023-01-01T08:21:41.294Z,6.72
2023-01-01T08:24:07.618Z,8.45
2023-01-01T08:26:35.847Z,10.18
2023-01-01T08:29:04.787Z,10.25
2023-01-01T08:31:31.178Z,8.50
2023-01-01T08:33:57.511Z,7.45
2023-01-01T08:36:24.250Z,6.63
2023-01-01T08:38:50.700Z,9.13
2023-01-01T08:41:17.307Z,7.35
2023-01-01T08:43:43.654Z,7.35
2023-01-01T08:46:10.100Z,7.97
2023-01-01T08:48:36.425Z,7.75
2023-01-01T08:51:03.044Z,5.57
2023-01-01T08:53:30.880Z,8.13
2023-01-01T08:56:05.889Z,6.93
2023-01-01T08:58:33.457Z,5.13
2023-01-01T09:01:00.715Z,6.30
2023-01-01T09:03:27.658Z,6.65
2023-01-01T09:05:54.724Z,5.55
2023-01-01T09:08:21.972Z,6.10
2023-01-01T09:10:48.789Z,7.28
2023-01-01T09:13:17.923Z,6.32
2023-01-01T09:18:15.453Z,5.00
2023-01-01T09:20:41.876Z,4.93
2023-01-01T09:23:08.573Z,5.65
2023-01-01T09:25:35.450Z,5.30
2023-01-01T09:28:07.355Z,5.72
2023-01-01T09:30:34.994Z,5.47
2023-01-01T09:33:02.006Z,5.88
2023-01-01T09:35:29.505Z,8.68
2023-01-01T09:37:58.927Z,6.20
2023-01-01T09:41:04.746Z,3.67
2023-01-01T09:44:04.514Z,9.02
2023-01-01T09:46:32.324Z,6.47
2023-01-01T09:49:03.341Z,3.40
2023-01-01T09:51:39.881Z,8.63
2023-01-01T09:54:22.729Z,7.85
2023-01-01T09:56:57.009Z,5.30
2023-01-01T09:59:23.655Z,3.85
2023-01-01T10:02:18.176Z,5.72
2023-01-01T10:05:03.059Z,8.77
2023-01-01T10:07:38.309Z,4.68
2023-01-01T10:10:31.132Z,2.92
2023-01-01T10:13:11.276Z,4.55
2023-01-01T10:15:52.457Z,4.07
2023-01-01T10:18:23.618Z,7.15
2023-01-01T10:21:02.612Z,4.07
2023-01-01T10:23:35.346Z,4.60
2023-01-01T10:26:16.160Z,7.63
2023-01-01T10:28:57.292Z,6.47
2023-01-01T10:31:32.456Z,7.45
2023-01-01T10:34:01.037Z,6.40
2023-01-01T10:36:27.589Z,6.82
2023-01-01T10:38:53.903Z,7.90
2023-01-01T10:41:20.438Z,4.30
2023-01-01T10:43:48.774Z,5.60
2023-01-01T10:46:29.553Z,9.05
2023-01-01T10:49:10.113Z,3.40
2023-01-01T10:51:50.888Z,4.80
2023-01-01T10:54:35.764Z,5.05
2023-01-01T10:57:16.818Z,6.90
2023-01-01T10:59:53.789Z,7.40
2023-01-01T11:02:26.537Z,5.70
2023-01-01T11:05:19.213Z,5.10
2023-01-01T11:07:48.193Z,6.03
2023-01-01T11:10:23.952Z,5.35
2023-01-01T11:13:07.047Z,4.93
2023-01-01T11:15:33.467Z,5.85
2023-01-01T11:18:12.415Z,4.05
2023-01-01T11:20:39.387Z,8.60
2023-01-01T11:23:39.488Z,5.38
2023-01-01T11:26:14.642Z,4.82
2023-01-01T11:28:41.487Z,7.55
2023-01-01T11:31:15.682Z,6.93
2023-01-01T11:33:52.676Z,6.88
2023-01-01T11:36:32.483Z,4.72
2023-01-01T11:39:20.075Z,6.00
2023-01-01T11:41:52.053Z,5.63
2023-01-01T11:44:43.808Z,6.10
2023-01-01T11:47:35.790Z,6.13
2023-01-01T11:50:08.872Z,8.48
2023-01-01T11:52:39.014Z,10.07
2023-01-01T11:55:27.297Z,8.75
2023-01-01T11:58:04.230Z,4.15
2023-01-01T12:00:35.829Z,6.97
2023-01-01T12:03:20.674Z,6.22
2023-01-01T12:05:52.784Z,6.72
2023-01-01T12:08:37.122Z,5.05
2023-01-01T12:11:17.451Z,4.03
2023-01-01T12:13:48.715Z,4.75
2023-01-01T12:16:36.650Z,8.80
2023-01-01T12:19:13.396Z,5.95
2023-01-01T12:21:49.023Z,7.22
2023-01-01T12:24:18.760Z,6.95
2023-01-01T12:27:17.360Z,7.47
2023-01-01T12:30:13.732Z,5.22
2023-01-01T12:33:08.715Z,8.43
2023-01-01T12:35:43.955Z,4.85
2023-01-01T12:38:18.711Z,6.00
2023-01-01T12:41:09.247Z,8.38
2023-01-01T12:43:52.252Z,5.20
2023-01-01T12:46:42.929Z,6.22
2023-01-01T12:49:38.174Z,5.97
2023-01-01T12:52:38.612Z,5.40
2023-01-01T12:55:48.565Z,6.55
2023-01-01T12:58:35.079Z,5.22
2023-01-01T13:01:12.761Z,5.80
2023-01-01T13:03:49.028Z,5.38
2023-01-01T13:06:23.393Z,5.43
2023-01-01T13:08:59.713Z,6.97
2023-01-01T13:11:32.717Z,5.85
2023-01-01T13:13:59.271Z,5.10
2023-01-01T13:16:35.472Z,7.03
2023-01-01T13:19:03.001Z,6.55
2023-01-01T13:21:30.272Z,4.00
2023-01-01T13:24:02.661Z,7.90
2023-01-01T13:26:28.918Z,8.55
2023-01-01T13:28:58.040Z,4.57
2023-01-01T13:31:39.986Z,7.00
2023-01-01T13:36:51.472Z,6.15
2023-01-01T13:40:00.801Z,5.30
2023-01-01T13:43:02.300Z,6.22
2023-01-01T13:46:10.642Z,6.15
2023-01-01T13:48:29.603Z,7.30
2023-01-01T13:52:03.466Z,5.68
2023-01-01T13:54:57.347Z,6.45
2023-01-01T13:57:44.491Z,7.45
2023-01-01T14:00:33.129Z,5.65
2023-01-01T14:03:03.004Z,6.53
2023-01-01T14:05:44.840Z,5.50
2023-01-01T14:08:33.762Z,6.28
2023-01-01T14:11:02.355Z,7.53
2023-01-01T14:13:40.996Z,6.35
2023-01-01T14:16:13.697Z,6.78
2023-01-01T14:18:47.695Z,6.93
2023-01-01T14:21:17.375Z,5.57
2023-01-01T14:23:49.802Z,6.07
2023-01-01T14:26:19.741Z,8.38
2023-01-01T14:28:46.152Z,3.75
2023-01-01T14:31:19.432Z,7.70
2023-01-01T14:33:46.132Z,7.70
2023-01-01T14:36:23.091Z,12.32
2023-01-01T14:38:52.142Z,7.10
2023-01-01T14:44:02.784Z,5.20
2023-01-01T14:46:29.781Z,5.38
2023-01-01T14:48:58.816Z,6.85
2023-01-01T14:51:27.975Z,8.10
2023-01-01T14:56:30.425Z,5.72
2023-01-01T14:59:28.276Z,6.20
2023-01-01T15:02:14.230Z,6.30
2023-01-01T15:04:41.158Z,10.48
2023-01-01T15:07:20.783Z,9.60
2023-01-01T15:09:47.440Z,6.40
2023-01-01T15:12:15.661Z,8.35
2023-01-01T15:14:45.455Z,6.00
2023-01-01T15:17:14.477Z,8.18
2023-01-01T15:19:43.228Z,6.25
2023-01-01T15:22:26.743Z,7.03
2023-01-01T15:24:54.152Z,5.95
2023-01-01T15:27:29.553Z,8.93
2023-01-01T15:29:57.081Z,9.13
2023-01-01T15:32:33.116Z,7.93
2023-01-01T15:35:18.307Z,5.40
2023-01-01T15:37:51.150Z,6.80
2023-01-01T15:40:17.420Z,7.22
2023-01-01T15:42:51.615Z,4.85
2023-01-01T15:45:26.198Z,9.02
2023-01-01T15:47:55.219Z,5.95
2023-01-01T15:50:27.499Z,9.20
2023-01-01T15:52:58.073Z,8.48
2023-01-01T15:55:31.240Z,14.30
2023-01-01T15:57:58.661Z,8.80
2023-01-01T16:00:31.682Z,9.32
2023-01-01T16:03:17.258Z,9.93
2023-01-01T16:05:49.435Z,6.82
2023-01-01T16:08:17.266Z,10.57
2023-01-01T16:10:44.171Z,8.85
2023-01-01T16:13:10.501Z,10.30
2023-01-01T16:15:36.826Z,8.70
2023-01-01T16:18:03.254Z,8.20
2023-01-01T16:20:29.638Z,8.13
2023-01-01T16:22:55.990Z,11.32
2023-01-01T16:25:23.330Z,7.75
2023-01-01T16:27:49.792Z,6.07
2023-01-01T16:30:16.215Z,7.28
2023-01-01T16:32:43.173Z,7.47
2023-01-01T16:35:14.178Z,9.63
2023-01-01T16:37:40.526Z,7.30
2023-01-01T16:40:09.179Z,7.38
2023-01-01T16:42:35.491Z,8.57
2023-01-01T16:45:01.841Z,9.43
2023-01-01T16:47:28.181Z,12.52
2023-01-01T16:49:57.265Z,9.15
2023-01-01T16:54:50.176Z,12.23
2023-01-01T16:57:16.498Z,14.23
2023-01-01T16:59:42.836Z,10.55
2023-01-01T17:02:11.033Z,9.48
2023-01-01T17:04:37.557Z,9.88
2023-01-01T17:07:03.920Z,13.32
2023-01-01T17:09:30.234Z,8.73
2023-01-01T17:11:56.640Z,13.02
2023-01-01T17:14:22.987Z,14.05
2023-01-01T17:16:51.629Z,13.00
2023-01-01T17:19:18.157Z,10.82
2023-01-01T17:21:48.884Z,10.18
2023-01-01T17:24:16.983Z,8.60
2023-01-01T17:26:43.870Z,10.50
2023-01-01T17:29:10.735Z,13.95
2023-01-01T17:31:42.359Z,9.13
2023-01-01T17:34:13.811Z,9.63
2023-01-01T17:36:41.855Z,10.25
2023-01-01T17:39:10.860Z,10.80
2023-01-01T17:41:37.929Z,8.65
2023-01-01T17:44:04.425Z,8.32
2023-01-01T17:46:32.908Z,8.43
2023-01-01T17:49:00.371Z,7.50
2023-01-01T17:51:27.464Z,6.90
2023-01-01T17:53:55.228Z,8.45
2023-01-01T17:56:22.899Z,10.73
2023-01-01T17:58:52.317Z,10.77
2023-01-01T18:01:21.898Z,8.70
2023-01-01T18:03:53.848Z,8.30
2023-01-01T18:06:21.518Z,12.27
2023-01-01T18:08:48.733Z,10.98
2023-01-01T18:11:15.120Z,9.55
2023-01-01T18:13:41.408Z,10.95
2023-01-01T18:16:10.047Z,10.50
2023-01-01T18:18:37.915Z,13.05
2023-01-01T18:21:06.264Z,12.00
2023-01-01T18:23:37.435Z,13.65
2023-01-01T18:26:06.502Z,11.00
2023-01-01T18:28:33.301Z,8.25
2023-01-01T18:31:07.699Z,11.00
2023-01-01T18:33:34.904Z,10.70
2023-01-01T18:36:12.835Z,6.03
2023-01-01T18:38:42.435Z,10.05
2023-01-01T18:41:45.936Z,7.82
2023-01-01T18:44:19.097Z,9.05
2023-01-01T18:47:04.412Z,8.70
2023-01-01T18:49:31.849Z,7.28
2023-01-01T18:52:07.286Z,7.35
2023-01-01T18:54:34.484Z,8.40
2023-01-01T18:57:28.869Z,8.38
2023-01-01T19:02:28.757Z,10.23
2023-01-01T19:05:14.996Z,9.20
2023-01-01T19:07:41.840Z,6.70
2023-01-01T19:10:13.037Z,6.93
2023-01-01T19:12:39.885Z,7.28
2023-01-01T19:15:17.774Z,6.05
2023-01-01T19:17:45.828Z,9.85
2023-01-01T19:20:18.795Z,6.47
2023-01-01T19:22:45.709Z,6.10
2023-01-01T19:25:34.395Z,5.97
2023-01-01T19:28:13.027Z,7.25
2023-01-01T19:30:39.362Z,5.20
2023-01-01T19:33:05.694Z,10.85
2023-01-01T19:35:32.016Z,7.15
2023-01-01T19:37:58.374Z,9.93
2023-01-01T19:40:25.746Z,6.90
2023-01-01T19:42:52.015Z,7.72
2023-01-01T19:45:18.287Z,7.60
2023-01-01T19:47:45.359Z,6.65
2023-01-01T19:50:12.502Z,6.25
2023-01-01T19:52:39.575Z,6.15
2023-01-01T19:55:07.193Z,9.25
2023-01-01T19:57:33.932Z,6.03
2023-01-01T20:00:00.338Z,5.20
2023-01-01T20:02:45.491Z,7.45
2023-01-01T20:05:13.090Z,5.75
2023-01-01T20:07:39.473Z,4.57
2023-01-01T20:10:06.154Z,7.18
2023-01-01T20:12:32.432Z,5.78
2023-01-01T20:14:58.726Z,9.52
2023-01-01T20:17:25.049Z,8.00
2023-01-01T20:19:51.422Z,5.70
2023-01-01T20:22:17.766Z,7.50
2023-01-01T20:24:44.963Z,5.32
2023-01-01T20:27:13.009Z,6.55
2023-01-01T20:29:39.935Z,7.47
2023-01-01T20:32:12.369Z,5.72
2023-01-01T20:34:42.595Z,6.13
2023-01-01T20:37:27.633Z,7.78
2023-01-01T20:39:54.137Z,6.45
2023-01-01T20:42:20.755Z,5.85
2023-01-01T20:44:47.138Z,7.70
2023-01-01T20:47:14.306Z,7.15
2023-01-01T20:49:42.615Z,6.10
2023-01-01T20:52:09.258Z,8.27
2023-01-01T20:54:35.747Z,7.00
2023-01-01T20:57:02.136Z,6.38
2023-01-01T20:59:37.415Z,7.30
2023-01-01T21:02:10.179Z,8.10
2023-01-01T21:04:39.393Z,5.00
2023-01-01T21:07:07.844Z,6.32
2023-01-01T21:09:34.184Z,5.80
2023-01-01T21:12:01.591Z,6.30
2023-01-01T21:14:28.191Z,6.78
2023-01-01T21:16:54.626Z,8.45
2023-01-01T21:19:26.358Z,7.03
2023-01-01T21:21:55.928Z,6.57
2023-01-01T21:24:34.512Z,5.38
2023-01-01T21:27:14.701Z,6.20
2023-01-01T21:29:46.577Z,7.90
2023-01-01T21:32:24.946Z,6.18
2023-01-01T21:34:53.594Z,7.90
2023-01-01T21:37:48.085Z,5.78
2023-01-01T21:40:35.381Z,4.18
2023-01-01T21:43:01.671Z,8.52
2023-01-01T21:45:33.151Z,6.97
2023-01-01T21:48:09.825Z,5.60
2023-01-01T21:50:40.390Z,9.32
2023-01-01T21:53:14.087Z,6.43
2023-01-01T21:55:53.109Z,7.10
2023-01-01T21:58:48.446Z,6.55
2023-01-01T22:01:20.678Z,8.73
2023-01-01T22:04:16.628Z,6.63
2023-01-01T22:06:55.321Z,8.07
2023-01-01T22:09:44.304Z,6.70
2023-01-01T22:12:13.758Z,8.20
2023-01-01T22:14:45.260Z,5.43
2023-01-01T22:17:19.928Z,6.78
2023-01-01T22:19:47.111Z,6.20
2023-01-01T22:22:15.940Z,7.38
2023-01-01T22:24:52.130Z,6.30
2023-01-01T22:27:25.162Z,5.70
2023-01-01T22:29:51.870Z,5.90
2023-01-01T22:32:36.614Z,6.35
2023-01-01T22:35:18.586Z,7.13
2023-01-01T22:37:48.398Z,10.02
2023-01-01T22:40:33.221Z,5.70
2023-01-01T22:43:05.731Z,5.70
2023-01-01T22:45:38.435Z,8.10
2023-01-01T22:48:06.969Z,6.60
2023-01-01T22:50:34.441Z,7.00
2023-01-01T22:53:00.723Z,6.45
2023-01-01T22:55:27.011Z,5.82
2023-01-01T22:57:53.302Z,6.75
2023-01-01T23:00:19.640Z,6.40
2023-01-01T23:02:46.032Z,6.60
2023-01-01T23:05:12.631Z,4.50
2023-01-01T23:07:42.088Z,5.20
2023-01-01T23:10:13.725Z,5.47
2023-01-01T23:12:40.377Z,5.57
2023-01-01T23:15:25.910Z,5.80
2023-01-01T23:17:52.179Z,8.68
2023-01-01T23:20:18.640Z,7.07
2023-01-01T23:22:49.497Z,4.85
2023-01-01T23:25:18.268Z,5.28
2023-01-01T23:27:47.345Z,5.05
2023-01-01T23:30:14.096Z,7.40
2023-01-01T23:32:41.940Z,6.95
2023-01-01T23:35:09.750Z,5.38
2023-01-01T23:37:36.291Z,9.63
2023-01-01T23:40:02.612Z,8.18
2023-01-01T23:42:28.902Z,8.23
2023-01-01T23:44:55.224Z,5.82
2023-01-01T23:47:21.659Z,5.97
2023-01-01T23:49:48.062Z,4.68
2023-01-01T23:52:14.372Z,6.55
2023-01-01T23:54:40.786Z,6.88
2023-01-01T23:57:07.194Z,6.07
2023-01-01T23:59:33.482Z,6.40
